createdAt,value
2023-09-15T00:03:46.203Z,22.90
2023-09-15T00:08:48.727Z,22.90
2023-09-15T00:13:52.089Z,23.00
2023-09-15T00:18:54.235Z,22.40
2023-09-15T00:23:56.370Z,22.30
2023-09-15T00:28:58.536Z,22.00
2023-09-15T00:34:00.692Z,22.20
2023-09-15T00:39:03.086Z,22.50
2023-09-15T00:44:05.451Z,22.30
2023-09-15T00:49:07.913Z,22.30
2023-09-15T00:54:13.310Z,22.60
2023-09-15T00:59:15.917Z,22.40
2023-09-15T01:04:19.571Z,22.30
2023-09-15T01:09:24.026Z,22.30
2023-09-15T01:14:27.270Z,22.40
2023-09-15T01:19:44.084Z,22.50
2023-09-15T01:25:32.200Z,22.10
2023-09-15T01:30:35.108Z,22.20
2023-09-15T01:35:37.304Z,21.90
2023-09-15T01:40:39.547Z,21.90
2023-09-15T01:45:41.716Z,21.70
2023-09-15T01:50:44.934Z,21.90
2023-09-15T01:55:49.894Z,21.90
2023-09-15T02:00:53.419Z,21.30
2023-09-15T02:05:57.227Z,21.10
2023-09-15T02:10:59.558Z,20.90
2023-09-15T02:16:01.946Z,20.50
2023-09-15T02:21:05.070Z,20.70
2023-09-15T02:26:07.551Z,20.90
2023-09-15T02:31:09.970Z,21.40
2023-09-15T02:36:12.682Z,21.10
2023-09-15T02:41:15.542Z,21.10
2023-09-15T02:46:18.193Z,21.30
2023-09-15T02:51:20.627Z,21.60
2023-09-15T02:56:25.290Z,21.10
2023-09-15T03:01:28.231Z,21.50
2023-09-15T03:06:30.851Z,21.60
2023-09-15T03:11:33.199Z,21.60
2023-09-15T03:16:45.387Z,21.80
2023-09-15T03:21:48.046Z,21.40
2023-09-15T03:26:51.152Z,20.90
2023-09-15T03:31:53.630Z,20.90
2023-09-15T03:36:55.980Z,21.10
2023-09-15T03:41:58.260Z,21.40
2023-09-15T03:47:01.957Z,21.70
2023-09-15T03:52:04.687Z,21.70
2023-09-15T03:57:06.829Z,21.60
2023-09-15T04:02:10.018Z,20.70
2023-09-15T04:07:13.926Z,20.50
2023-09-15T04:12:16.128Z,21.10
2023-09-15T04:17:19.319Z,21.20
2023-09-15T04:22:22.769Z,20.90
2023-09-15T04:27:24.920Z,20.20
2023-09-15T04:32:29.946Z,19.80
2023-09-15T04:37:32.449Z,19.60
2023-09-15T04:42:35.161Z,19.90
2023-09-15T04:47:39.032Z,20.50
2023-09-15T04:53:08.521Z,20.30
2023-09-15T04:58:12.901Z,21.00
2023-09-15T05:03:17.246Z,21.40
2023-09-15T05:08:19.629Z,21.40
2023-09-15T05:13:21.930Z,21.50
2023-09-15T05:18:24.285Z,21.50
2023-09-15T05:23:26.543Z,21.70
2023-09-15T05:28:28.726Z,21.60
2023-09-15T05:33:31.003Z,21.30
2023-09-15T05:38:33.299Z,21.30
2023-09-15T05:43:35.617Z,21.70
2023-09-15T05:48:37.850Z,21.60
2023-09-15T05:53:40.059Z,21.70
2023-09-15T05:58:42.871Z,21.90
2023-09-15T06:03:45.101Z,21.80
2023-09-15T06:08:47.513Z,21.90
2023-09-15T06:13:50.085Z,21.60
2023-09-15T06:18:52.276Z,21.60
2023-09-15T06:23:54.593Z,21.50
2023-09-15T06:28:58.189Z,21.10
2023-09-15T06:34:00.558Z,20.80
2023-09-15T06:39:03.360Z,21.20
2023-09-15T06:44:06.019Z,21.80
2023-09-15T06:49:09.598Z,21.80
2023-09-15T06:54:13.507Z,22.00
2023-09-15T06:59:15.748Z,22.30
2023-09-15T07:04:18.908Z,22.50
2023-09-15T07:09:21.603Z,22.70
2023-09-15T07:14:23.756Z,21.20
2023-09-15T07:19:26.038Z,22.30
2023-09-15T07:24:28.231Z,23.00
2023-09-15T07:29:31.143Z,23.10
2023-09-15T07:34:33.347Z,23.00
2023-09-15T07:39:35.599Z,23.40
2023-09-15T07:44:39.117Z,23.80
2023-09-15T07:49:42.004Z,24.10
2023-09-15T07:54:44.364Z,24.10
2023-09-15T07:59:47.307Z,24.40
2023-09-15T08:04:50.515Z,24.70
2023-09-15T08:09:53.434Z,25.00
2023-09-15T08:14:55.614Z,25.10
2023-09-15T08:19:58.113Z,25.30
2023-09-15T08:25:02.514Z,25.50
2023-09-15T08:30:06.826Z,25.20
2023-09-15T08:35:09.308Z,25.60
2023-09-15T08:40:13.663Z,25.90
2023-09-15T08:45:16.562Z,26.20
2023-09-15T08:50:19.932Z,26.40
2023-09-15T08:55:22.442Z,26.40
2023-09-15T09:05:32.226Z,26.70
2023-09-15T09:10:34.594Z,27.20
2023-09-15T09:15:38.653Z,27.40
2023-09-15T11:42:25.943Z,27.70
2023-09-15T11:47:32.477Z,33.10
2023-09-15T11:52:34.993Z,33.00
2023-09-15T11:57:37.453Z,31.00
2023-09-15T12:02:39.719Z,30.40
2023-09-15T12:07:44.755Z,29.60
2023-09-15T12:12:47.044Z,29.40
2023-09-15T12:17:49.266Z,29.20
2023-09-15T15:29:52.923Z,28.80
2023-09-15T15:34:55.273Z,29.70
2023-09-15T15:39:58.388Z,29.40
2023-09-15T15:45:00.746Z,29.10
2023-09-15T15:50:02.956Z,29.10
2023-09-15T17:41:19.431Z,29.00
2023-09-15T17:46:21.620Z,25.40
2023-09-15T17:51:26.171Z,25.10
2023-09-15T17:56:28.365Z,25.20
2023-09-15T18:01:30.624Z,25.30
2023-09-15T18:06:32.810Z,24.70
2023-09-15T18:11:36.022Z,24.60
2023-09-15T18:16:38.203Z,24.80
2023-09-15T18:21:40.430Z,25.00
2023-09-15T18:26:42.735Z,24.10
2023-09-15T18:31:45.872Z,24.20
2023-09-15T18:36:48.093Z,23.70
2023-09-15T18:41:50.460Z,24.10
2023-09-15T18:46:53.794Z,23.90
2023-09-15T18:51:56.007Z,24.10
2023-09-15T18:56:58.371Z,24.10
2023-09-15T19:02:00.554Z,24.40
2023-09-15T19:07:02.774Z,24.80
2023-09-15T19:12:05.581Z,24.90
2023-09-15T19:17:07.781Z,24.80
2023-09-15T19:22:09.984Z,25.10
2023-09-15T19:27:12.169Z,24.80
2023-09-15T19:32:14.361Z,25.10
2023-09-15T19:37:16.612Z,25.00
2023-09-15T19:42:18.872Z,24.80
2023-09-15T19:47:21.017Z,24.70
2023-09-15T19:52:26.224Z,24.40
2023-09-15T19:57:47.990Z,23.50
2023-09-15T20:02:52.876Z,23.90
2023-09-15T20:07:56.907Z,24.40
2023-09-15T20:12:59.088Z,23.80
2023-09-15T20:18:01.630Z,23.70
2023-09-15T20:23:04.759Z,24.10
2023-09-15T20:28:07.043Z,23.60
2023-09-15T20:33:09.326Z,23.50
2023-09-15T20:38:11.626Z,23.70
2023-09-15T20:43:14.425Z,23.70
2023-09-15T20:48:16.658Z,23.80
2023-09-15T20:53:18.865Z,23.70
2023-09-15T20:58:21.086Z,24.00
2023-09-15T21:03:23.346Z,23.70
2023-09-15T21:08:25.561Z,23.50
2023-09-15T21:13:27.739Z,22.90
2023-09-15T21:18:30.077Z,22.40
2023-09-15T21:23:32.234Z,22.40
2023-09-15T21:28:34.514Z,22.20
2023-09-15T21:33:38.721Z,22.70
2023-09-15T21:38:41.086Z,23.00
2023-09-15T21:43:43.426Z,23.00
2023-09-15T21:48:45.771Z,22.40
2023-09-15T21:53:48.144Z,21.60
2023-09-15T21:58:51.004Z,21.40
2023-09-15T22:03:53.442Z,21.50
2023-09-15T22:08:55.969Z,22.30
2023-09-15T22:13:58.240Z,23.00
2023-09-15T22:19:00.524Z,23.30
2023-09-15T22:24:02.725Z,23.70
2023-09-15T22:29:05.206Z,24.00
2023-09-15T22:34:08.056Z,24.20
2023-09-15T22:39:10.374Z,24.20
2023-09-15T22:44:12.502Z,23.70
2023-09-15T22:49:19.214Z,22.90
2023-09-15T22:54:21.381Z,23.30
2023-09-15T22:59:23.604Z,23.70
2023-09-15T23:04:25.807Z,23.70
2023-09-15T23:09:28.159Z,23.80
2023-09-15T23:14:30.334Z,24.00
2023-09-15T23:19:35.622Z,24.10
2023-09-15T23:24:40.617Z,24.00
2023-09-15T23:29:42.870Z,23.90
2023-09-15T23:34:45.365Z,24.10
2023-09-15T23:39:47.721Z,24.30
2023-09-15T23:44:49.856Z,24.00
2023-09-15T23:49:53.438Z,23.90
2023-09-15T23:54:55.663Z,22.40
2023-09-15T23:59:58.234Z,21.70
